Time;durP1;ratioP1;P1;durP2;ratioP2;P2;SDS_P1;SDS_P2;PMS_P1;PMS_P2;Temp;Humidity;BMP_temperature;BMP_pressure;BME280_temperature;BME280_humidity;BME280_pressure;Samples;Min_cycle;Max_cycle;Signal;HPM_P1;HPM_P2
2021/12/08 00:01:28;;;;;;;;;6.75;5.50;;;;;8.85;59.93;99789.34;146606;635;46016;-82
2021/12/08 00:04:20;;;;;;;;;6.00;6.00;;;;;8.84;60.30;99791.06;146608;633;46021;-83
2021/12/08 00:07:13;;;;;;;;;5.00;5.00;;;;;8.83;59.56;99797.06;146608;609;46917;-88
2021/12/08 00:13:17;;;;;;;;;4.00;3.00;;;;;7.71;57.18;99594.97;146605;587;46016;-86
2021/12/08 00:16:16;;;;;;;;;2.00;2.00;;;;;8.90;57.45;99805.94;146607;576;46010;-83
2021/12/08 00:19:08;;;;;;;;;4.25;4.25;;;;;8.94;57.72;99818.19;146605;664;46017;-83
2021/12/08 00:22:00;;;;;;;;;4.00;4.00;;;;;8.97;57.74;99828.66;146610;611;46010;-81
2021/12/08 00:24:52;;;;;;;;;7.00;4.25;;;;;8.96;56.04;99826.91;146607;564;46017;-82
2021/12/08 00:27:45;;;;;;;;;3.00;3.00;;;;;8.93;57.29;99829.34;146608;621;46010;-83
2021/12/08 00:30:40;;;;;;;;;5.00;5.00;;;;;8.88;56.97;99824.00;146606;631;46012;-83
2021/12/08 00:33:32;;;;;;;;;4.50;3.00;;;;;8.87;57.03;99836.84;146608;582;46020;-85
2021/12/08 00:36:31;;;;;;;;;5.25;5.25;;;;;8.84;57.40;99842.75;146605;622;46016;-88
2021/12/08 00:39:23;;;;;;;;;6.25;5.00;;;;;8.82;57.80;99852.16;146608;601;46010;-88
2021/12/08 00:42:15;;;;;;;;;5.75;5.75;;;;;8.77;58.80;99848.47;146606;594;46014;-85
2021/12/08 00:45:10;;;;;;;;;6.75;5.00;;;;;8.76;59.38;99864.81;146610;716;46010;-79
2021/12/08 00:48:03;;;;;;;;;4.00;4.00;;;;;8.77;59.66;99874.31;146607;576;46012;-80
2021/12/08 00:50:55;;;;;;;;;7.50;6.00;;;;;8.75;59.67;99865.59;146606;570;46020;-84
2021/12/08 00:53:50;;;;;;;;;4.75;4.50;;;;;8.76;59.00;99859.66;146604;592;46016;-81
2021/12/08 00:56:42;;;;;;;;;5.50;4.00;;;;;8.74;56.53;99867.31;146610;601;46010;-82
2021/12/08 00:59:34;;;;;;;;;4.75;4.00;;;;;8.71;56.01;99871.47;146605;700;46016;-83
2021/12/08 01:02:27;;;;;;;;;4.75;4.75;;;;;8.69;55.87;99879.16;146607;570;46020;-83
2021/12/08 01:05:22;;;;;;;;;5.00;4.00;;;;;8.72;56.80;99880.97;146604;564;46918;-78
2021/12/08 01:08:14;;;;;;;;;6.25;4.75;;;;;8.73;57.12;99875.91;146607;564;46020;-82
2021/12/08 01:11:10;;;;;;;;;3.00;3.00;;;;;8.75;57.41;99878.53;146606;660;46918;-79
2021/12/08 01:14:03;;;;;;;;;3.50;3.00;;;;;8.74;56.08;99890.56;146609;612;46010;-84
2021/12/08 01:16:55;;;;;;;;;4.25;3.75;;;;;8.74;57.03;99889.69;146607;580;46017;-81
2021/12/08 01:19:47;;;;;;;;;3.50;3.00;;;;;7.55;57.58;99702.63;146609;669;46010;-83
2021/12/08 01:22:39;;;;;;;;;8.75;7.00;;;;;8.70;57.31;99909.34;146606;582;46012;-83
2021/12/08 01:25:31;;;;;;;;;3.25;3.25;;;;;8.71;57.26;99908.53;146601;643;46021;-83
2021/12/08 01:28:23;;;;;;;;;3.00;3.00;;;;;8.69;57.74;99912.78;146607;652;46012;-83
2021/12/08 01:31:16;;;;;;;;;3.25;3.00;;;;;8.64;57.41;99897.84;146604;576;46020;-82
2021/12/08 01:34:08;;;;;;;;;4.00;4.00;;;;;8.64;57.66;99909.06;146606;590;46014;-81
2021/12/08 01:37:00;;;;;;;;;6.00;5.00;;;;;8.57;56.28;99914.78;146610;565;46012;-80
2021/12/08 01:39:53;;;;;;;;;4.50;4.00;;;;;8.51;56.30;99912.78;146607;619;46013;-77
2021/12/08 01:42:48;;;;;;;;;4.00;4.00;;;;;8.44;57.00;99920.19;146610;580;46010;-77
2021/12/08 01:45:59;;;;;;;;;3.50;3.00;;;;;8.40;57.41;99915.69;146605;565;46014;-76
2021/12/08 01:48:51;;;;;;;;;6.00;5.50;;;;;8.37;57.93;99918.09;146608;617;46021;-76
2021/12/08 01:51:44;;;;;;;;;7.00;6.00;;;;;8.29;57.75;99918.63;146605;599;46918;-77
2021/12/08 01:54:37;;;;;;;;;5.50;5.50;;;;;8.27;59.40;99924.53;146608;569;46010;-76
2021/12/08 01:57:29;;;;;;;;;5.50;5.25;;;;;8.25;59.45;99934.78;146603;569;46016;-76
2021/12/08 02:00:37;;;;;;;;;5.75;5.75;;;;;8.24;59.82;99934.72;146611;563;45020;-76
2021/12/08 02:03:30;;;;;;;;;6.25;5.50;;;;;8.21;59.49;99939.72;146609;613;46012;-72
2021/12/08 02:06:25;;;;;;;;;9.00;6.25;;;;;8.14;59.42;99941.13;146607;564;47020;-73
2021/12/08 02:09:20;;;;;;;;;7.00;6.50;;;;;8.13;59.80;99941.97;146608;570;46013;-75
2021/12/08 02:12:12;;;;;;;;;5.25;5.00;;;;;8.10;59.50;99949.56;146608;582;46010;-85
2021/12/08 02:15:05;;;;;;;;;4.75;4.75;;;;;8.11;60.29;99964.22;146606;589;47012;-83
2021/12/08 02:17:59;;;;;;;;;8.25;7.00;;;;;8.14;60.80;99966.97;146610;564;46012;-81
2021/12/08 02:20:53;;;;;;;;;5.75;5.75;;;;;8.18;60.04;99968.00;146601;593;46014;-82
2021/12/08 02:23:46;;;;;;;;;6.00;5.00;;;;;8.18;59.75;99979.19;146606;603;46020;-82
2021/12/08 02:26:39;;;;;;;;;5.25;5.25;;;;;8.22;60.07;99977.66;146607;582;46014;-84
2021/12/08 02:29:39;;;;;;;;;8.00;7.00;;;;;8.22;59.47;99980.22;146608;573;46020;-86
2021/12/08 02:46:41;;;;;;;;;7.50;6.00;;;;;8.23;59.14;99982.03;146607;601;46014;-78
2021/12/08 02:48:25;;;;;;;;;5.50;5.50;;;;;8.29;58.45;99988.38;146604;564;46021;-74
2021/12/08 02:51:19;;;;;;;;;7.00;6.25;;;;;8.33;58.65;99982.53;146605;582;46016;-75
2021/12/08 02:54:11;;;;;;;;;10.00;6.50;;;;;8.36;57.86;99980.91;146605;567;46021;-76
2021/12/08 02:57:03;;;;;;;;;6.00;5.00;;;;;8.37;58.34;99978.37;146605;598;46016;-76
2021/12/08 02:59:56;;;;;;;;;7.25;6.00;;;;;8.40;57.45;99985.44;146611;574;46010;-77
2021/12/08 03:02:48;;;;;;;;;7.00;7.00;;;;;8.41;57.37;99984.63;146605;620;46017;-75
2021/12/08 03:05:40;;;;;;;;;12.00;10.50;;;;;8.42;56.58;99981.25;146609;591;47010;-73
2021/12/08 03:08:33;;;;;;;;;6.00;4.75;;;;;8.43;57.27;99988.16;146606;718;46016;-85
2021/12/08 03:11:26;;;;;;;;;9.25;7.00;;;;;8.43;56.91;99989.06;146608;564;46010;-80
2021/12/08 03:14:19;;;;;;;;;4.50;4.50;;;;;8.45;57.07;99991.72;146606;616;46012;-82
2021/12/08 03:17:15;;;;;;;;;5.75;5.50;;;;;8.46;57.02;100002.13;146606;583;46021;-82
2021/12/08 03:20:14;;;;;;;;;5.75;5.75;;;;;8.49;56.63;99999.69;146604;610;46016;-88
2021/12/08 03:23:06;;;;;;;;;8.75;8.75;;;;;8.50;57.12;100001.47;146607;667;46020;-85
2021/12/08 03:26:01;;;;;;;;;5.00;4.00;;;;;8.50;56.16;100004.06;146605;571;46016;-79
2021/12/08 03:29:00;;;;;;;;;4.75;4.75;;;;;8.53;55.46;100014.50;146609;641;46010;-79
2021/12/08 03:31:55;;;;;;;;;6.50;5.50;;;;;8.54;56.25;100023.16;146606;608;46013;-83
2021/12/08 03:34:53;;;;;;;;;4.00;4.00;;;;;8.52;55.73;100014.44;146603;617;47917;-83
2021/12/08 03:37:48;;;;;;;;;3.50;3.50;;;;;8.58;55.25;100032.81;146605;595;46017;-83
2021/12/08 03:40:40;;;;;;;;;3.75;3.75;;;;;8.59;55.21;100036.28;146607;633;46010;-84
2021/12/08 03:43:33;;;;;;;;;4.00;4.00;;;;;8.56;55.46;100035.31;146606;631;46016;-83
2021/12/08 03:46:27;;;;;;;;;4.00;4.00;;;;;8.52;53.74;100040.28;146608;665;46010;-83
2021/12/08 03:49:21;;;;;;;;;5.75;5.00;;;;;8.50;55.55;100044.47;146607;622;46016;-85
2021/12/08 03:52:14;;;;;;;;;6.50;4.50;;;;;8.50;55.40;100041.91;146611;638;46010;-87
2021/12/08 03:55:06;;;;;;;;;3.00;3.00;;;;;8.46;55.26;100048.62;146606;565;46014;-79
2021/12/08 03:57:59;;;;;;;;;5.00;4.00;;;;;8.43;54.74;100043.31;146610;615;46010;-86
2021/12/08 04:00:53;;;;;;;;;4.50;4.50;;;;;8.37;54.32;100042.09;146604;578;46016;-88
2021/12/08 04:03:49;;;;;;;;;2.25;2.25;;;;;8.35;55.59;100049.78;146607;581;47010;-81
2021/12/08 04:06:49;;;;;;;;;4.00;3.50;;;;;8.32;55.35;100062.53;146605;600;46016;-77
2021/12/08 04:09:43;;;;;;;;;6.75;4.50;;;;;8.30;56.08;100075.38;146608;569;46020;-77
2021/12/08 04:12:35;;;;;;;;;4.75;4.75;;;;;8.30;55.88;100079.66;146608;603;45016;-78
2021/12/08 04:15:29;;;;;;;;;8.25;5.00;;;;;8.29;56.32;100089.09;146607;618;46010;-77
2021/12/08 04:18:22;;;;;;;;;7.00;6.50;;;;;8.28;56.55;100089.88;146605;573;46016;-77
2021/12/08 04:21:16;;;;;;;;;10.25;7.50;;;;;8.23;56.34;100100.81;146605;566;46918;-79
2021/12/08 04:24:11;;;;;;;;;4.25;4.00;;;;;8.17;56.57;100111.72;146607;574;46017;-73
2021/12/08 04:27:12;;;;;;;;;5.75;5.50;;;;;8.12;56.79;100112.28;146609;594;46010;-74
2021/12/08 04:30:05;;;;;;;;;5.00;4.50;;;;;8.05;56.09;100109.41;146606;610;46017;-83
2021/12/08 04:32:57;;;;;;;;;6.25;5.50;;;;;7.99;56.58;100116.81;146609;762;46010;-79
2021/12/08 04:35:52;;;;;;;;;9.75;7.25;;;;;7.96;56.25;100129.56;146606;618;46016;-79
2021/12/08 04:38:49;;;;;;;;;6.50;5.00;;;;;7.95;56.58;100132.09;146606;745;46011;-80
2021/12/08 04:41:46;;;;;;;;;5.25;5.25;;;;;7.90;55.43;100130.94;146608;598;46012;-75
2021/12/08 04:44:43;;;;;;;;;5.00;5.00;;;;;7.86;55.54;100135.97;146611;586;46011;-76
2021/12/08 04:47:47;;;;;;;;;7.75;7.75;;;;;7.81;56.33;100134.81;146604;572;46017;-74
2021/12/08 05:00:14;;;;;;;;;6.50;5.50;;;;;6.62;56.46;99955.66;146606;580;46017;-82
2021/12/08 05:01:29;;;;;;;;;6.75;6.50;;;;;7.71;57.19;100155.78;146606;588;46016;-81
2021/12/08 05:04:49;;;;;;;;;3.00;3.00;;;;;7.72;57.40;100164.41;146607;579;46020;-82
2021/12/08 05:07:54;;;;;;;;;9.50;7.25;;;;;7.70;57.30;100173.78;146605;583;46916;-82
2021/12/08 05:10:47;;;;;;;;;8.75;8.00;;;;;7.65;56.82;100173.53;146605;581;46020;-83
2021/12/08 05:13:40;;;;;;;;;10.25;9.00;;;;;7.62;57.81;100178.50;146606;563;46016;-82
2021/12/08 05:16:34;;;;;;;;;8.00;8.00;;;;;7.59;57.86;100186.97;146610;622;46010;-85
2021/12/08 05:19:35;;;;;;;;;9.25;7.00;;;;;7.58;58.39;100195.53;146606;595;46016;-85
2021/12/08 05:22:38;;;;;;;;;9.00;7.50;;;;;7.58;59.33;100205.84;146608;583;46010;-86
2021/12/08 05:25:35;;;;;;;;;7.50;6.25;;;;;7.60;59.29;100214.56;146606;564;45584;-84
2021/12/08 05:28:31;;;;;;;;;8.00;6.50;;;;;7.58;58.86;100216.16;146610;583;46010;-85
2021/12/08 05:31:33;;;;;;;;;11.00;7.00;;;;;7.54;58.95;100213.31;146606;584;46012;-85
2021/12/08 05:34:25;;;;;;;;;6.75;6.75;;;;;7.53;59.28;100227.03;146608;573;46020;-83
2021/12/08 05:37:21;;;;;;;;;11.25;10.00;;;;;7.50;59.46;100212.28;146607;591;46012;-83
2021/12/08 05:40:19;;;;;;;;;12.00;11.25;;;;;6.54;59.72;100067.69;146604;602;47020;-79
2021/12/08 05:43:13;;;;;;;;;13.00;12.00;;;;;7.57;59.93;100234.13;146606;579;46014;-80
2021/12/08 05:46:07;;;;;;;;;14.75;14.75;;;;;7.57;60.91;100249.59;146608;610;46021;-81
2021/12/08 05:49:00;;;;;;;;;24.00;18.75;;;;;7.54;60.66;100252.94;146605;593;46917;-80
2021/12/08 05:51:55;;;;;;;;;49.25;41.00;;;;;7.52;60.48;100256.22;146607;584;46021;-75
2021/12/08 05:54:50;;;;;;;;;29.75;24.00;;;;;7.49;60.57;100268.97;146608;564;45016;-75
2021/12/08 05:57:46;;;;;;;;;22.00;19.00;;;;;7.45;60.20;100262.75;146606;599;46020;-75
2021/12/08 06:00:59;;;;;;;;;18.50;15.75;;;;;7.45;60.25;100267.00;146604;595;46016;-77
2021/12/08 06:03:53;;;;;;;;;17.50;15.25;;;;;7.46;59.73;100289.41;146609;565;46011;-78
2021/12/08 06:06:47;;;;;;;;;17.25;17.00;;;;;7.45;60.47;100293.69;146605;689;46016;-81
2021/12/08 06:09:41;;;;;;;;;17.00;16.00;;;;;7.42;60.18;100300.38;146606;606;46020;-79
2021/12/08 06:12:33;;;;;;;;;15.00;14.25;;;;;7.22;61.05;100294.94;146606;584;46014;-79
2021/12/08 06:15:26;;;;;;;;;20.50;16.75;;;;;7.20;61.45;100312.03;146607;591;46010;-79
2021/12/08 06:18:22;;;;;;;;;18.50;16.00;;;;;7.18;61.63;100314.50;146606;586;46016;-78
2021/12/08 06:25:47;;;;;;;;;28.25;26.00;;;;;7.14;61.97;100348.66;146606;608;46012;-77
2021/12/08 06:28:54;;;;;;;;;28.25;23.75;;;;;6.06;62.55;100152.47;146608;589;46010;-77
2021/12/08 06:31:47;;;;;;;;;22.25;19.75;;;;;7.62;63.55;100362.59;146604;641;46920;-76
2021/12/08 06:35:10;;;;;;;;;45.25;33.00;;;;;8.56;62.22;100360.03;146607;618;46012;-77
2021/12/08 06:38:02;;;;;;;;;22.50;19.75;;;;;9.45;60.35;100355.16;146605;634;46015;-76
2021/12/08 06:41:07;;;;;;;;;24.50;20.75;;;;;10.24;58.29;100348.56;146607;615;46010;-76
2021/12/08 06:44:27;;;;;;;;;;;;;;;;;;;;;
2021/12/08 06:47:47;;;;;;;;;49.50;38.00;;;;;10.26;55.59;100046.38;146610;594;45051;-76
2021/12/08 06:50:58;;;;;;;;;41.00;35.00;;;;;13.03;53.55;100378.28;146606;645;45919;-76
2021/12/08 06:53:59;;;;;;;;;42.00;35.25;;;;;13.77;51.07;100385.22;146607;570;46021;-76
2021/12/08 06:57:07;;;;;;;;;41.50;35.00;;;;;14.47;49.31;100383.03;146602;605;46039;-86
2021/12/08 07:00:18;;;;;;;;;10.50;10.50;;;;;15.21;46.27;100384.31;146609;575;46010;-74
2021/12/08 07:03:32;;;;;;;;;9.50;7.75;;;;;16.02;47.48;100382.03;146604;564;46016;-74
2021/12/08 07:06:59;;;;;;;;;7.00;6.00;;;;;16.78;44.89;100391.59;146609;649;46010;-75
2021/12/08 07:10:26;;;;;;;;;6.75;5.75;;;;;17.51;44.33;100394.75;146602;565;46016;-75
2021/12/08 07:13:29;;;;;;;;;7.75;7.75;;;;;18.02;41.92;100395.63;146605;690;46020;-80
2021/12/08 07:16:27;;;;;;;;;7.00;6.00;;;;;18.29;39.29;100399.56;146606;574;46016;-80
2021/12/08 07:19:48;;;;;;;;;10.50;8.50;;;;;18.40;40.00;100398.81;146606;563;46010;-80
2021/12/08 07:22:58;;;;;;;;;9.25;8.00;;;;;18.46;38.33;100379.66;146605;652;47012;-83
2021/12/08 07:25:53;;;;;;;;;8.25;8.00;;;;;18.38;37.07;100376.03;146606;580;46021;-83
2021/12/08 07:28:49;;;;;;;;;7.25;7.25;;;;;18.16;38.78;100382.72;146603;573;46923;-82
2021/12/08 07:31:52;;;;;;;;;8.25;7.50;;;;;17.85;39.29;100389.22;146608;628;46020;-85
2021/12/08 07:34:51;;;;;;;;;5.50;5.25;;;;;17.45;36.97;100388.53;146608;660;46012;-82
2021/12/08 07:37:49;;;;;;;;;6.50;6.50;;;;;16.96;37.83;100388.47;146607;651;46020;-78
2021/12/08 07:41:09;;;;;;;;;6.50;6.50;;;;;16.47;40.60;100397.00;146607;570;46017;-77
2021/12/08 07:44:08;;;;;;;;;9.50;8.50;;;;;15.94;39.01;100403.63;146604;726;47010;-73
2021/12/08 07:47:21;;;;;;;;;12.75;10.00;;;;;14.44;44.00;100229.91;146606;577;46014;-77
2021/12/08 07:50:23;;;;;;;;;14.75;9.75;;;;;15.25;42.17;100407.06;146608;565;47010;-77
2021/12/08 07:53:32;;;;;;;;;8.50;7.25;;;;;15.04;41.77;100422.12;146605;598;46016;-76
2021/12/08 07:56:36;;;;;;;;;8.00;7.75;;;;;14.81;40.69;100431.91;146608;564;46020;-77
2021/12/08 07:59:30;;;;;;;;;4.75;4.50;;;;;14.58;39.54;100436.47;146607;641;46016;-74
2021/12/08 08:02:27;;;;;;;;;7.50;5.00;;;;;14.41;46.08;100437.63;146607;584;47010;-72
2021/12/08 08:05:22;;;;;;;;;2.25;2.25;;;;;14.35;40.60;100433.09;146604;599;47012;-73
2021/12/08 08:08:25;;;;;;;;;9.00;6.25;;;;;14.35;43.20;100447.88;146609;618;46010;-73
2021/12/08 08:11:31;;;;;;;;;4.75;4.75;;;;;14.43;44.66;100447.28;146605;651;46016;-70
2021/12/08 08:14:28;;;;;;;;;9.00;6.25;;;;;14.51;43.20;100451.03;146607;682;46010;-70
2021/12/08 08:17:40;;;;;;;;;9.25;8.50;;;;;14.59;42.68;100453.87;146605;639;46017;-69
2021/12/08 08:20:39;;;;;;;;;7.75;7.50;;;;;14.66;44.32;100461.06;146607;687;46020;-70
2021/12/08 08:23:38;;;;;;;;;10.75;8.25;;;;;14.79;42.71;100462.31;146605;564;46016;-70
2021/12/08 08:26:34;;;;;;;;;6.50;6.50;;;;;14.91;43.04;100449.63;146610;660;45020;-69
2021/12/08 08:29:26;;;;;;;;;6.00;6.00;;;;;15.01;43.11;100442.94;146603;600;46918;-71
2021/12/08 08:32:29;;;;;;;;;7.50;7.50;;;;;15.15;43.88;100445.94;146605;642;46021;-71
2021/12/08 08:35:49;;;;;;;;;6.75;5.75;;;;;14.22;44.57;100274.50;146607;667;46012;-70
2021/12/08 08:39:24;;;;;;;;;10.75;8.75;;;;;15.30;44.47;100463.78;146606;639;46022;-69
2021/12/08 08:42:35;;;;;;;;;8.25;5.25;;;;;15.34;44.24;100453.44;146602;563;46016;-70
2021/12/08 08:45:45;;;;;;;;;9.00;8.00;;;;;15.40;43.07;100461.47;146606;677;47010;-70
2021/12/08 08:48:46;;;;;;;;;6.00;6.00;;;;;15.48;42.57;100448.59;146604;679;48012;-70
2021/12/08 08:52:01;;;;;;;;;6.00;5.50;;;;;15.65;45.48;100449.06;146609;574;45020;-70
2021/12/08 08:55:00;;;;;;;;;6.50;5.25;;;;;15.84;42.18;100445.22;146605;569;47012;-70
2021/12/08 08:57:57;;;;;;;;;4.50;4.00;;;;;15.93;40.69;100437.59;146608;613;46010;-70
2021/12/08 09:01:04;;;;;;;;;9.00;7.00;;;;;15.98;43.20;100458.63;146602;638;46017;-70
2021/12/08 09:04:06;;;;;;;;;6.00;5.00;;;;;16.04;42.86;100450.94;146608;652;46020;-69
2021/12/08 09:07:05;;;;;;;;;8.25;8.25;;;;;16.15;41.67;100447.75;146606;635;46012;-70
2021/12/08 09:10:04;;;;;;;;;11.75;7.00;;;;;16.29;42.67;100437.63;146606;599;46021;-70
2021/12/08 09:13:08;;;;;;;;;10.25;7.00;;;;;16.40;41.85;100437.84;146607;646;46016;-70
2021/12/08 09:16:15;;;;;;;;;10.25;7.75;;;;;16.47;42.74;100444.97;146607;578;46011;-70
2021/12/08 09:19:41;;;;;;;;;8.50;7.25;;;;;16.51;41.52;100449.47;146606;713;46012;-71
2021/12/08 09:22:56;;;;;;;;;11.00;9.00;;;;;16.49;42.90;100447.66;146608;659;46021;-70
2021/12/08 09:25:55;;;;;;;;;4.50;3.50;;;;;16.46;38.86;100444.97;146608;575;46012;-70
2021/12/08 09:29:00;;;;;;;;;6.50;4.00;;;;;16.32;40.30;100445.53;146606;593;46012;-70
2021/12/08 09:32:16;;;;;;;;;9.00;8.50;;;;;16.24;42.86;100456.66;146608;565;46012;-70
2021/12/08 09:35:48;;;;;;;;;11.75;9.75;;;;;16.32;42.89;100458.63;146609;678;46020;-70
2021/12/08 09:38:49;;;;;;;;;7.33;6.00;;;;;16.43;40.49;100453.63;146604;673;47012;-70
2021/12/08 09:41:55;;;;;;;;;7.50;6.00;;;;;16.42;41.41;100451.88;146608;577;46010;-71
2021/12/08 09:45:04;;;;;;;;;5.75;5.00;;;;;16.40;42.55;100454.44;146608;584;46017;-73
2021/12/08 09:47:57;;;;;;;;;7.00;6.75;;;;;16.42;40.53;100444.03;146607;661;46020;-76
2021/12/08 09:50:50;;;;;;;;;6.50;5.00;;;;;16.48;39.75;100445.88;146606;693;46016;-80
2021/12/08 09:53:46;;;;;;;;;4.50;4.00;;;;;16.50;41.45;100450.28;146611;690;47010;-78
2021/12/08 09:56:39;;;;;;;;;5.00;4.00;;;;;16.50;40.99;100441.56;146609;657;46016;-75
2021/12/08 09:59:33;;;;;;;;;10.25;9.50;;;;;16.55;41.03;100440.81;146607;595;46021;-77
2021/12/08 10:02:34;;;;;;;;;6.75;5.75;;;;;16.70;40.46;100439.38;146606;615;45043;-77
2021/12/08 10:05:26;;;;;;;;;9.75;7.50;;;;;16.82;39.35;100435.34;146609;723;46010;-78
2021/12/08 10:08:18;;;;;;;;;5.75;5.00;;;;;16.88;37.74;100424.09;146603;597;46017;-79
2021/12/08 10:11:10;;;;;;;;;7.00;7.00;;;;;16.88;40.05;100431.94;146609;571;46010;-74
2021/12/08 10:14:05;;;;;;;;;10.75;10.00;;;;;16.94;40.04;100426.84;146604;681;46037;-74
2021/12/08 10:16:58;;;;;;;;;8.75;6.25;;;;;17.03;39.54;100420.91;146609;729;46010;-72
2021/12/08 10:20:27;;;;;;;;;6.25;6.25;;;;;17.14;41.59;100416.78;146606;573;46016;-71
2021/12/08 10:23:34;;;;;;;;;8.50;7.25;;;;;17.20;41.36;100424.75;146605;578;46021;-73
2021/12/08 10:26:28;;;;;;;;;6.00;4.25;;;;;17.26;38.45;100431.88;146605;570;46016;-72
2021/12/08 10:29:30;;;;;;;;;5.00;5.00;;;;;17.37;40.03;100425.06;146608;569;46010;-72
2021/12/08 10:32:22;;;;;;;;;4.50;4.50;;;;;17.50;37.80;100408.72;146606;604;46016;-72
2021/12/08 10:35:46;;;;;;;;;9.25;9.25;;;;;16.63;42.00;100242.03;146609;566;46010;-72
2021/12/08 10:38:43;;;;;;;;;14.75;14.25;;;;;17.72;37.99;100407.34;146604;578;46916;-75
2021/12/08 10:41:50;;;;;;;;;9.00;9.00;;;;;17.71;41.69;100407.34;146610;581;46010;-74
2021/12/08 10:45:15;;;;;;;;;5.75;5.75;;;;;17.67;37.37;100413.37;146604;633;46032;-79
2021/12/08 10:48:09;;;;;;;;;10.25;10.25;;;;;17.70;37.25;100413.44;146606;609;46010;-80
2021/12/08 10:54:30;;;;;;;;;5.25;5.25;;;;;17.78;40.63;100409.22;146605;577;46021;-86
2021/12/08 10:57:27;;;;;;;;;2.00;2.00;;;;;17.72;36.81;100411.72;146606;566;46014;-86
2021/12/08 11:00:31;;;;;;;;;4.00;4.00;;;;;17.69;39.95;100415.16;146607;570;46021;-73
2021/12/08 11:03:23;;;;;;;;;4.75;4.50;;;;;17.80;37.12;100422.38;146608;624;46012;-74
2021/12/08 11:06:17;;;;;;;;;6.25;6.00;;;;;17.93;37.70;100432.22;146608;585;46010;-86
2021/12/08 11:09:19;;;;;;;;;6.00;5.00;;;;;18.03;39.51;100435.88;146605;579;46016;-76
2021/12/08 11:12:12;;;;;;;;;7.00;5.67;;;;;18.15;36.98;100431.69;146609;613;46010;-80
2021/12/08 11:15:04;;;;;;;;;7.00;6.25;;;;;18.19;37.26;100433.53;146607;575;46013;-72
2021/12/08 11:18:21;;;;;;;;;6.50;6.50;;;;;18.27;41.17;100438.88;146607;638;46020;-74
2021/12/08 11:21:23;;;;;;;;;7.00;6.75;;;;;18.29;38.39;100431.06;146605;601;46016;-75
2021/12/08 11:24:32;;;;;;;;;5.67;5.67;;;;;18.36;37.96;100428.53;146610;574;46010;-79
2021/12/08 11:27:37;;;;;;;;;5.67;4.00;;;;;18.49;39.18;100426.09;146607;613;46016;-81
2021/12/08 11:30:29;;;;;;;;;9.00;6.75;;;;;18.57;37.45;100427.09;146607;635;46010;-81
2021/12/08 11:33:24;;;;;;;;;8.75;7.75;;;;;18.62;36.01;100417.50;146604;597;46014;-78
2021/12/08 11:36:22;;;;;;;;;15.75;11.50;;;;;17.73;37.24;100270.16;146607;624;46010;-78
2021/12/08 11:39:23;;;;;;;;;7.50;6.00;;;;;18.67;38.21;100426.34;146607;620;46016;-74
2021/12/08 11:42:17;;;;;;;;;6.25;6.00;;;;;18.73;36.93;100423.84;146608;570;46010;-73
2021/12/08 11:45:18;;;;;;;;;8.75;7.00;;;;;18.90;35.53;100416.16;146606;578;46016;-75
2021/12/08 11:48:30;;;;;;;;;18.00;17.50;;;;;18.95;39.74;100421.47;146605;585;47010;-77
2021/12/08 11:51:22;;;;;;;;;4.00;4.00;;;;;18.99;35.94;100418.91;146606;619;46017;-75
2021/12/08 11:54:43;;;;;;;;;5.00;4.67;;;;;19.03;39.79;100419.81;146610;609;46029;-76
2021/12/08 11:57:42;;;;;;;;;5.25;5.25;;;;;19.13;36.16;100424.34;146605;649;46017;-78
2021/12/08 12:00:41;;;;;;;;;9.00;6.50;;;;;19.24;34.92;100427.94;146608;638;46020;-88
2021/12/08 12:03:33;;;;;;;;;7.00;7.00;;;;;19.33;35.18;100421.91;146607;572;46016;-74
2021/12/08 12:06:28;;;;;;;;;4.75;4.75;;;;;19.38;36.21;100418.47;146610;633;46010;-82
2021/12/08 12:09:20;;;;;;;;;7.25;5.50;;;;;19.55;34.40;100417.75;146608;571;46012;-82
2021/12/08 12:12:12;;;;;;;;;10.25;9.50;;;;;19.60;35.76;100429.22;146607;607;46010;-81
2021/12/08 12:15:05;;;;;;;;;9.67;7.33;;;;;19.65;34.85;100419.63;146608;708;46016;-79
2021/12/08 12:17:57;;;;;;;;;9.50;6.75;;;;;19.81;35.80;100416.28;146607;589;47010;-75
2021/12/08 12:21:16;;;;;;;;;10.00;9.00;;;;;19.04;38.30;100251.66;146607;575;46033;-76
2021/12/08 12:25:03;;;;;;;;;6.25;5.00;;;;;19.66;39.23;100341.59;146608;620;46010;-75
2021/12/08 12:28:48;;;;;;;;;6.33;5.00;;;;;20.37;37.28;100433.34;146609;578;46013;-72
2021/12/08 12:32:16;;;;;;;;;6.67;6.67;;;;;20.62;38.07;100439.69;146608;582;46022;-72
2021/12/08 12:35:31;;;;;;;;;7.50;7.25;;;;;20.91;38.10;100454.81;146608;575;46017;-72
2021/12/08 12:38:37;;;;;;;;;5.67;5.00;;;;;20.93;36.19;100450.41;146610;594;46012;-71
2021/12/08 12:41:34;;;;;;;;;9.00;7.50;;;;;20.83;36.49;100436.28;146607;641;46016;-71
2021/12/08 12:44:31;;;;;;;;;11.00;11.00;;;;;21.08;34.29;100447.81;146610;583;47010;-73
2021/12/08 12:47:29;;;;;;;;;8.00;7.00;;;;;21.23;33.93;100453.16;146606;640;46917;-72
2021/12/08 12:50:26;;;;;;;;;6.67;6.67;;;;;21.31;36.46;100442.66;146609;693;46010;-72
2021/12/08 12:53:39;;;;;;;;;21.75;20.25;;;;;21.52;37.45;100446.22;146599;622;47917;-71
2021/12/08 12:56:55;;;;;;;;;10.00;8.00;;;;;21.65;38.26;100448.91;146609;565;45021;-71
2021/12/08 12:59:53;;;;;;;;;10.67;9.67;;;;;21.82;34.19;100448.06;146607;588;46034;-71
2021/12/08 13:02:52;;;;;;;;;6.00;5.33;;;;;21.80;35.06;100449.78;146610;610;46010;-72
2021/12/08 13:06:10;;;;;;;;;8.33;7.00;;;;;21.18;37.41;100362.63;146607;649;46016;-72
2021/12/08 13:09:02;;;;;;;;;8.67;8.67;;;;;21.68;32.11;100451.56;146609;563;46012;-72
2021/12/08 13:12:09;;;;;;;;;6.00;5.67;;;;;21.59;33.35;100454.19;146606;606;46918;-72
2021/12/08 13:15:28;;;;;;;;;11.33;11.33;;;;;20.93;37.51;100339.69;146612;606;46010;-72
2021/12/08 13:18:27;;;;;;;;;11.33;11.33;;;;;21.65;35.26;100442.72;146607;590;46017;-72
2021/12/08 13:21:19;;;;;;;;;8.00;8.00;;;;;21.71;34.32;100444.50;146611;644;46010;-71
2021/12/08 13:24:44;;;;;;;;;6.50;6.50;;;;;21.19;38.09;100348.56;146607;632;47012;-72
2021/12/08 13:27:36;;;;;;;;;20.25;19.75;;;;;21.86;33.67;100444.53;146606;564;47011;-72
2021/12/08 13:30:29;;;;;;;;;20.50;19.00;;;;;21.94;33.63;100442.78;146605;612;46012;-71
2021/12/08 13:33:36;;;;;;;;;15.75;14.00;;;;;22.02;36.83;100450.69;146608;585;46010;-73
2021/12/08 13:36:34;;;;;;;;;8.33;7.67;;;;;22.06;34.28;100453.34;146608;717;46016;-70
2021/12/08 13:39:33;;;;;;;;;8.33;8.33;;;;;22.02;33.95;100461.25;146605;573;46020;-72
2021/12/08 13:42:33;;;;;;;;;22.00;22.00;;;;;21.84;32.99;100457.75;146604;627;46017;-72
2021/12/08 13:45:25;;;;;;;;;11.00;10.50;;;;;21.67;32.84;100460.34;146609;600;46029;-72
2021/12/08 13:48:17;;;;;;;;;7.33;6.33;;;;;21.56;32.53;100466.50;146607;577;46016;-72
2021/12/08 13:51:24;;;;;;;;;8.67;6.00;;;;;21.51;36.06;100468.22;146609;632;46010;-73
2021/12/08 13:54:34;;;;;;;;;9.33;6.67;;;;;21.43;37.05;100474.37;146608;609;46012;-72
2021/12/08 13:57:51;;;;;;;;;21.75;19.75;;;;;20.69;36.69;100359.84;146608;569;46021;-71
2021/12/08 14:00:49;;;;;;;;;8.00;8.00;;;;;21.23;33.86;100481.28;146606;586;46016;-71
2021/12/08 14:03:48;;;;;;;;;5.33;5.33;;;;;21.15;34.80;100475.09;146610;569;46029;-71
2021/12/08 14:06:41;;;;;;;;;6.67;6.00;;;;;21.09;33.04;100475.06;146605;584;46014;-71
2021/12/08 14:09:33;;;;;;;;;8.67;7.67;;;;;21.04;32.96;100487.38;146610;595;46010;-72
2021/12/08 14:12:26;;;;;;;;;9.50;8.50;;;;;20.85;32.36;100489.91;146604;579;46918;-71
2021/12/08 14:15:32;;;;;;;;;18.25;17.00;;;;;20.63;35.17;100485.38;146609;569;46010;-71
2021/12/08 14:18:38;;;;;;;;;44.00;35.50;;;;;20.53;37.33;100487.09;146601;644;47013;-71
2021/12/08 14:21:33;;;;;;;;;15.75;15.00;;;;;20.44;34.40;100485.22;146608;581;46010;-71
2021/12/08 14:24:27;;;;;;;;;44.50;35.00;;;;;20.20;34.84;100487.66;146602;750;46016;-71
2021/12/08 14:27:19;;;;;;;;;15.50;15.50;;;;;19.89;35.09;100492.66;146606;700;46010;-71
2021/12/08 14:30:11;;;;;;;;;25.25;21.50;;;;;19.44;35.53;100488.66;146603;707;46917;-72
2021/12/08 14:33:08;;;;;;;;;24.75;22.75;;;;;19.02;36.88;100495.13;146606;599;46021;-71